Time;durP1;ratioP1;P1;durP2;ratioP2;P2;SDS_P1;SDS_P2;PMS_P1;PMS_P2;Temp;Humidity;BMP_temperature;BMP_pressure;BME280_temperature;BME280_humidity;BME280_pressure;Samples;Min_cycle;Max_cycle;Signal;HPM_P1;HPM_P2
2021/01/17 00:00:00;;;;;;;;;;;;;;;21.81;18.48;97349.66;5125661;28;856;-78
2021/01/17 00:02:26;;;;;;;;;;;;;;;21.96;18.50;97338.59;5126334;28;926;-78
2021/01/17 00:04:51;;;;;;;;;;;;;;;21.92;18.65;97349.28;5125852;28;995;-79
2021/01/17 00:07:16;;;;;;;;;;;;;;;22.31;17.96;97348.56;5127354;28;641;-78
2021/01/17 00:09:42;;;;;;;;;;;;;;;21.71;18.65;97346.00;5125508;28;665;-78
2021/01/17 00:12:08;;;;;;;;;;;;;;;21.92;18.55;97337.97;5126075;28;609;-78
2021/01/17 00:14:35;;;;;;;;;;;;;;;22.14;18.34;97350.06;5125112;28;854;-78
2021/01/17 00:17:01;;;;;;;;;;;;;;;21.69;18.76;97357.00;5125521;28;1893;-78
2021/01/17 00:19:26;;;;;;;;;;;;;;;22.31;18.03;97351.41;5124778;28;974;-78
2021/01/17 00:21:52;;;;;;;;;;;;;;;22.72;17.54;97359.91;5126110;28;701;-78
2021/01/17 00:24:17;;;;;;;;;;;;;;;22.75;17.64;97365.44;5125713;28;713;-78
2021/01/17 00:26:43;;;;;;;;;;;;;;;21.82;18.22;97363.38;5125495;28;705;-78
2021/01/17 00:29:08;;;;;;;;;;;;;;;21.89;18.42;97364.38;5125205;28;939;-78
2021/01/17 00:31:34;;;;;;;;;;;;;;;21.96;18.10;97366.91;5125337;28;930;-78
2021/01/17 00:34:00;;;;;;;;;;;;;;;22.14;18.03;97372.72;5124328;28;864;-78
2021/01/17 00:36:25;;;;;;;;;;;;;;;22.33;18.06;97374.41;5124885;28;708;-77
2021/01/17 00:38:51;;;;;;;;;;;;;;;22.54;17.72;97380.50;5124318;28;1906;-76
2021/01/17 00:41:16;;;;;;;;;;;;;;;22.26;17.72;97386.00;5125610;28;629;-78
2021/01/17 00:43:43;;;;;;;;;;;;;;;22.27;17.81;97396.09;5123901;28;829;-78
2021/01/17 00:46:08;;;;;;;;;;;;;;;22.28;17.87;97392.03;5125526;28;884;-78
2021/01/17 00:48:33;;;;;;;;;;;;;;;22.66;17.52;97390.91;5124447;28;1069;-78
2021/01/17 00:50:59;;;;;;;;;;;;;;;22.58;17.46;97389.63;5125938;28;633;-78
2021/01/17 00:53:24;;;;;;;;;;;;;;;21.94;18.10;97375.09;5106444;28;1169;-78
2021/01/17 00:55:50;;;;;;;;;;;;;;;22.30;17.51;97386.66;5125432;28;1124;-78
2021/01/17 00:58:22;;;;;;;;;;;;;;;22.69;17.32;97390.00;5123550;28;1913;-78
2021/01/17 01:00:49;;;;;;;;;;;;;;;22.10;17.89;97389.03;5107316;28;1189;-78
2021/01/17 01:03:21;;;;;;;;;;;;;;;22.41;17.85;97391.13;5106243;28;1201;-78
2021/01/17 01:05:46;;;;;;;;;;;;;;;22.46;17.53;97390.53;5125337;28;673;-78
2021/01/17 01:08:12;;;;;;;;;;;;;;;22.29;17.77;97392.81;5124450;28;673;-78
2021/01/17 01:10:37;;;;;;;;;;;;;;;22.01;18.19;97394.66;5124875;28;601;-78
2021/01/17 01:13:03;;;;;;;;;;;;;;;21.77;18.15;97391.50;5124100;28;951;-78
2021/01/17 01:15:28;;;;;;;;;;;;;;;22.35;17.76;97382.44;5124282;28;915;-78
2021/01/17 01:17:53;;;;;;;;;;;;;;;22.83;17.45;97389.41;5123952;28;1909;-78
2021/01/17 01:20:19;;;;;;;;;;;;;;;22.29;17.76;97389.97;5124634;28;653;-78
2021/01/17 01:22:45;;;;;;;;;;;;;;;22.10;17.96;97389.03;5123816;28;625;-78
2021/01/17 01:25:10;;;;;;;;;;;;;;;22.55;17.24;97387.72;5124250;28;664;-78
2021/01/17 01:27:36;;;;;;;;;;;;;;;22.47;17.56;97387.22;5124805;28;663;-78
2021/01/17 01:30:01;;;;;;;;;;;;;;;22.29;17.73;97390.75;5123227;28;948;-78
2021/01/17 01:32:27;;;;;;;;;;;;;;;22.10;18.04;97383.38;5106923;28;887;-78
2021/01/17 01:34:52;;;;;;;;;;;;;;;22.07;17.96;97389.97;5123459;28;995;-78
2021/01/17 01:37:18;;;;;;;;;;;;;;;22.09;17.92;97381.81;5124294;28;1909;-78
2021/01/17 01:39:43;;;;;;;;;;;;;;;22.22;17.56;97385.34;5123532;28;721;-78
2021/01/17 01:42:09;;;;;;;;;;;;;;;21.93;18.05;97382.03;5124416;28;613;-78
2021/01/17 01:44:34;;;;;;;;;;;;;;;22.12;17.76;97385.78;5123091;28;944;-78
2021/01/17 01:47:00;;;;;;;;;;;;;;;21.83;18.19;97370.63;5123777;28;969;-78
2021/01/17 01:49:26;;;;;;;;;;;;;;;22.14;17.97;97389.72;5123493;28;988;-78
2021/01/17 01:51:52;;;;;;;;;;;;;;;21.52;18.43;97395.25;5123919;28;665;-78
2021/01/17 01:54:17;;;;;;;;;;;;;;;21.98;17.85;97401.25;5123159;28;980;-78
2021/01/17 01:56:43;;;;;;;;;;;;;;;21.63;18.22;97400.53;5124074;28;637;-78
2021/01/17 01:59:08;;;;;;;;;;;;;;;22.07;17.85;97406.97;5122912;28;2015;-78
2021/01/17 02:01:33;;;;;;;;;;;;;;;22.06;17.55;97397.66;5123318;28;887;-77
2021/01/17 02:03:59;;;;;;;;;;;;;;;22.18;17.80;97407.41;5123074;28;979;-78
2021/01/17 02:06:25;;;;;;;;;;;;;;;22.12;17.61;97409.22;5124214;28;810;-78
2021/01/17 02:09:09;;;;;;;;;;;;;;;21.69;18.33;97410.78;5122436;28;677;-77
2021/01/17 02:11:47;;;;;;;;;;;;;;;22.13;17.66;97416.50;5123270;28;867;-77
2021/01/17 02:14:15;;;;;;;;;;;;;;;22.29;17.52;97419.09;5122548;28;832;-78
2021/01/17 02:16:41;;;;;;;;;;;;;;;22.04;18.00;97427.72;5123901;28;765;-78
2021/01/17 02:19:07;;;;;;;;;;;;;;;22.33;17.72;97427.47;5105546;28;1968;-77
2021/01/17 02:21:34;;;;;;;;;;;;;;;21.96;17.86;97426.41;5123672;28;657;-77
2021/01/17 02:24:01;;;;;;;;;;;;;;;21.71;18.37;97430.97;5104984;28;630;-77
2021/01/17 02:26:26;;;;;;;;;;;;;;;21.75;18.17;97428.75;5124774;28;649;-77
2021/01/17 02:28:52;;;;;;;;;;;;;;;21.82;18.02;97430.56;5104559;28;912;-77
2021/01/17 02:31:17;;;;;;;;;;;;;;;21.77;18.22;97429.13;5106136;28;858;-78
2021/01/17 02:33:43;;;;;;;;;;;;;;;22.23;17.70;97423.78;5104717;28;977;-78
2021/01/17 02:36:11;;;;;;;;;;;;;;;22.55;17.63;97431.03;5123777;28;613;-78
2021/01/17 02:38:56;;;;;;;;;;;;;;;21.84;17.82;97431.69;5122500;28;1902;-78
2021/01/17 02:41:38;;;;;;;;;;;;;;;21.31;18.72;97436.41;5123554;28;696;-78
2021/01/17 02:44:06;;;;;;;;;;;;;;;21.42;18.47;97436.03;5122370;28;732;-77
2021/01/17 02:46:32;;;;;;;;;;;;;;;22.02;18.08;97444.38;5123489;28;704;-77
2021/01/17 02:48:57;;;;;;;;;;;;;;;22.01;17.70;97454.13;5122451;28;856;-78
2021/01/17 02:51:25;;;;;;;;;;;;;;;22.36;17.45;97464.16;5123601;28;919;-77
2021/01/17 02:53:51;;;;;;;;;;;;;;;21.81;17.87;97463.78;5122475;28;1003;-77
2021/01/17 02:56:17;;;;;;;;;;;;;;;22.12;17.63;97459.44;5106147;28;1056;-77
2021/01/17 02:58:43;;;;;;;;;;;;;;;21.98;17.78;97477.75;5123981;28;1982;-77
2021/01/17 03:01:08;;;;;;;;;;;;;;;22.26;17.29;97475.91;5110010;28;673;-77
2021/01/17 03:03:37;;;;;;;;;;;;;;;21.96;17.60;97480.22;5125865;28;987;-77
2021/01/17 03:06:02;;;;;;;;;;;;;;;22.07;17.69;97474.94;5127784;28;857;-78
2021/01/17 03:08:28;;;;;;;;;;;;;;;21.98;17.48;97477.75;5108418;28;945;-78
2021/01/17 03:10:53;;;;;;;;;;;;;;;22.15;17.56;97481.19;5109829;28;701;-77
2021/01/17 03:13:19;;;;;;;;;;;;;;;22.62;16.86;97486.69;5126266;28;652;-78
2021/01/17 03:15:44;;;;;;;;;;;;;;;22.32;17.18;97489.00;5109670;28;598;-78
2021/01/17 03:18:10;;;;;;;;;;;;;;;21.89;17.30;97497.47;5125856;28;1964;-78
2021/01/17 03:20:35;;;;;;;;;;;;;;;22.08;17.06;97499.22;5126640;28;840;-78
2021/01/17 03:23:01;;;;;;;;;;;;;;;22.09;17.46;97500.81;5126220;28;1009;-78
2021/01/17 03:25:26;;;;;;;;;;;;;;;22.17;17.41;97502.13;5126770;28;712;-78
2021/01/17 03:27:52;;;;;;;;;;;;;;;22.16;17.20;97500.56;5126662;28;668;-78
2021/01/17 03:30:17;;;;;;;;;;;;;;;22.08;17.11;97493.56;5126111;28;649;-77
2021/01/17 03:32:43;;;;;;;;;;;;;;;21.77;17.74;97502.75;5126256;28;824;-78
2021/01/17 03:35:09;;;;;;;;;;;;;;;21.97;17.59;97510.16;5125821;28;884;-78
2021/01/17 03:37:34;;;;;;;;;;;;;;;21.45;17.86;97508.69;5125656;28;1898;-78
2021/01/17 03:39:59;;;;;;;;;;;;;;;22.32;17.34;97519.41;5125930;28;716;-78
2021/01/17 03:42:25;;;;;;;;;;;;;;;22.08;17.62;97516.22;5126681;28;697;-78
2021/01/17 03:44:50;;;;;;;;;;;;;;;22.21;17.16;97519.81;5125635;28;685;-78
2021/01/17 03:47:16;;;;;;;;;;;;;;;21.97;17.64;97515.81;5126310;28;1030;-77
2021/01/17 03:49:41;;;;;;;;;;;;;;;21.76;17.68;97523.00;5125731;28;819;-78
2021/01/17 03:52:07;;;;;;;;;;;;;;;21.82;17.87;97521.97;5127063;28;955;-78
2021/01/17 03:54:32;;;;;;;;;;;;;;;21.62;18.00;97512.97;5108257;28;1849;-77
2021/01/17 03:56:57;;;;;;;;;;;;;;;21.60;17.86;97526.78;5126306;28;700;-78
2021/01/17 03:59:23;;;;;;;;;;;;;;;21.56;18.02;97531.78;5125695;28;1965;-78
2021/01/17 04:01:48;;;;;;;;;;;;;;;21.51;18.20;97523.88;5126400;28;957;-78
2021/01/17 04:04:14;;;;;;;;;;;;;;;21.94;17.81;97522.38;5125512;28;852;-78
2021/01/17 04:06:39;;;;;;;;;;;;;;;22.15;17.55;97518.81;5126187;28;993;-78
2021/01/17 04:09:05;;;;;;;;;;;;;;;21.71;17.99;97532.91;5124499;28;881;-78
2021/01/17 04:11:31;;;;;;;;;;;;;;;21.91;17.30;97528.97;5107366;28;867;-78
2021/01/17 04:13:56;;;;;;;;;;;;;;;21.63;18.18;97525.88;5125677;28;645;-77
2021/01/17 04:16:22;;;;;;;;;;;;;;;21.97;17.55;97532.81;5126415;28;884;-78
2021/01/17 04:18:47;;;;;;;;;;;;;;;22.29;17.50;97529.63;5107315;28;1971;-78
2021/01/17 04:21:13;;;;;;;;;;;;;;;22.02;17.49;97518.84;5126850;28;895;-78
2021/01/17 04:23:38;;;;;;;;;;;;;;;21.81;17.76;97523.25;5107328;28;939;-78
2021/01/17 04:26:03;;;;;;;;;;;;;;;21.82;17.82;97521.19;5127246;28;652;-78
2021/01/17 04:28:29;;;;;;;;;;;;;;;21.68;18.04;97516.81;5125037;28;598;-78
2021/01/17 04:30:54;;;;;;;;;;;;;;;22.15;17.36;97515.97;5126311;28;989;-78
2021/01/17 04:33:20;;;;;;;;;;;;;;;22.15;17.53;97518.81;5124627;28;985;-78
2021/01/17 04:35:46;;;;;;;;;;;;;;;21.95;17.68;97518.31;5126226;28;984;-78
2021/01/17 04:38:11;;;;;;;;;;;;;;;21.55;18.04;97519.69;5125173;28;1886;-78
2021/01/17 04:40:36;;;;;;;;;;;;;;;21.90;17.50;97519.69;5126096;28;625;-78
2021/01/17 04:43:09;;;;;;;;;;;;;;;21.54;17.95;97522.94;5125058;28;673;-78
2021/01/17 04:45:35;;;;;;;;;;;;;;;21.75;17.64;97519.38;5125255;28;956;-78
2021/01/17 04:48:00;;;;;;;;;;;;;;;22.09;17.23;97517.81;5124446;28;940;-78
2021/01/17 04:50:26;;;;;;;;;;;;;;;21.96;17.65;97519.88;5107360;28;897;-78
2021/01/17 04:52:58;;;;;;;;;;;;;;;22.06;17.48;97524.38;5124355;28;562;-76
2021/01/17 04:55:24;;;;;;;;;;;;;;;22.11;17.30;97526.66;5124175;28;987;-78
2021/01/17 04:57:50;;;;;;;;;;;;;;;21.70;17.69;97519.97;5123862;28;1909;-77
2021/01/17 05:00:17;;;;;;;;;;;;;;;22.52;17.46;97528.38;5122728;28;870;-77
2021/01/17 05:02:43;;;;;;;;;;;;;;;22.35;17.46;97524.94;5105401;28;1092;-77
2021/01/17 05:05:13;;;;;;;;;;;;;;;21.40;18.29;97526.25;5105790;28;826;-77
2021/01/17 05:07:38;;;;;;;;;;;;;;;22.31;17.43;97540.50;5106939;28;669;-78
2021/01/17 05:10:08;;;;;;;;;;;;;;;22.09;17.28;97540.47;5123674;28;649;-76
2021/01/17 05:12:40;;;;;;;;;;;;;;;22.34;17.30;97534.72;5125281;28;695;-78
2021/01/17 05:15:06;;;;;;;;;;;;;;;22.39;17.08;97552.38;5106157;28;1081;-78
2021/01/17 05:17:38;;;;;;;;;;;;;;;21.96;17.54;97548.22;5124916;28;1882;-77
2021/01/17 05:20:04;;;;;;;;;;;;;;;22.18;17.29;97549.06;5124852;28;841;-78
2021/01/17 05:22:29;;;;;;;;;;;;;;;22.24;17.28;97552.13;5124168;28;654;-78
2021/01/17 05:24:55;;;;;;;;;;;;;;;22.17;17.53;97553.13;5106407;28;630;-78
2021/01/17 05:27:20;;;;;;;;;;;;;;;21.75;17.72;97556.19;5124908;28;645;-78
2021/01/17 05:29:46;;;;;;;;;;;;;;;22.30;17.44;97562.38;5123824;28;852;-78
2021/01/17 05:32:11;;;;;;;;;;;;;;;21.51;18.18;97552.19;5123802;28;966;-78
2021/01/17 05:34:36;;;;;;;;;;;;;;;21.74;17.80;97553.84;5122084;28;926;-73
2021/01/17 05:37:03;;;;;;;;;;;;;;;21.98;17.67;97551.38;5104044;28;1211;-74
2021/01/17 05:39:29;;;;;;;;;;;;;;;21.87;17.70;97554.59;5121024;28;1898;-74
2021/01/17 05:42:04;;;;;;;;;;;;;;;22.06;17.55;97552.72;5121743;28;602;-73
2021/01/17 05:44:29;;;;;;;;;;;;;;;22.32;17.46;97554.22;5121165;28;1081;-76
2021/01/17 05:47:04;;;;;;;;;;;;;;;22.36;17.02;97554.88;5121435;28;916;-75
2021/01/17 05:49:30;;;;;;;;;;;;;;;21.78;17.69;97543.97;5121269;28;585;-75
2021/01/17 05:52:09;;;;;;;;;;;;;;;22.20;17.58;97546.56;5121557;28;629;-76
2021/01/17 05:54:35;;;;;;;;;;;;;;;22.46;17.16;97552.09;5121061;28;1308;-76
2021/01/17 05:57:00;;;;;;;;;;;;;;;22.09;17.51;97551.81;5105206;28;649;-78
2021/01/17 05:59:38;;;;;;;;;;;;;;;22.51;17.16;97554.34;5103272;28;1902;-76
2021/01/17 06:02:12;;;;;;;;;;;;;;;21.91;17.52;97545.97;5122464;28;878;-76
2021/01/17 06:04:38;;;;;;;;;;;;;;;22.17;17.44;97550.31;5103571;28;1004;-76
2021/01/17 06:07:03;;;;;;;;;;;;;;;21.88;17.52;97549.72;5121394;28;880;-75
2021/01/17 06:09:29;;;;;;;;;;;;;;;21.92;17.28;97556.06;5104707;28;680;-78
2021/01/17 06:11:57;;;;;;;;;;;;;;;22.20;17.47;97563.56;5105115;28;799;-76
2021/01/17 06:14:24;;;;;;;;;;;;;;;21.97;17.64;97561.94;5121468;28;685;-77
2021/01/17 06:16:49;;;;;;;;;;;;;;;21.90;17.60;97561.38;5105230;28;767;-78
2021/01/17 06:19:14;;;;;;;;;;;;;;;22.15;17.22;97564.16;5104327;28;1906;-77
2021/01/17 06:21:40;;;;;;;;;;;;;;;21.96;17.57;97570.88;5104816;28;879;-77
2021/01/17 06:24:06;;;;;;;;;;;;;;;21.39;18.07;97561.47;5104599;28;1307;-77
2021/01/17 06:26:32;;;;;;;;;;;;;;;21.90;17.35;97564.22;5122554;28;781;-78
2021/01/17 06:28:58;;;;;;;;;;;;;;;22.09;17.09;97568.81;5121742;28;594;-77
2021/01/17 06:31:27;;;;;;;;;;;;;;;22.18;17.33;97571.75;5122760;28;702;-77
2021/01/17 06:34:00;;;;;;;;;;;;;;;21.36;18.05;97579.38;5104821;28;868;-75
2021/01/17 06:36:26;;;;;;;;;;;;;;;22.19;17.20;97573.31;5122655;28;836;-77
2021/01/17 06:38:51;;;;;;;;;;;;;;;22.26;16.86;97584.41;5104237;28;1987;-76
2021/01/17 06:41:17;;;;;;;;;;;;;;;22.25;17.08;97582.03;5122435;28;633;-77
2021/01/17 06:43:43;;;;;;;;;;;;;;;21.88;17.49;97592.22;5103379;28;1302;-77
2021/01/17 06:46:09;;;;;;;;;;;;;;;21.79;17.63;97590.84;5104725;28;773;-77
2021/01/17 06:48:34;;;;;;;;;;;;;;;21.82;17.43;97595.63;5120697;28;941;-77
2021/01/17 06:51:15;;;;;;;;;;;;;;;22.88;16.73;97601.56;5102152;28;986;-68
2021/01/17 06:53:41;;;;;;;;;;;;;;;22.81;17.00;97601.81;5119872;28;670;-68
2021/01/17 06:56:14;;;;;;;;;;;;;;;22.42;17.41;97613.81;5102609;28;1480;-68
2021/01/17 06:58:40;;;;;;;;;;;;;;;22.79;17.15;97621.34;5120216;28;1921;-69
2021/01/17 07:01:05;;;;;;;;;;;;;;;23.21;16.63;97618.16;5119764;28;678;-69
2021/01/17 07:03:34;;;;;;;;;;;;;;;23.47;16.60;97626.50;5085368;28;1353;-68
2021/01/17 07:06:10;;;;;;;;;;;;;;;23.24;16.98;97614.38;5101970;28;1087;-68
2021/01/17 07:08:50;;;;;;;;;;;;;;;22.35;17.78;97637.53;5120491;28;606;-67
2021/01/17 07:11:39;;;;;;;;;;;;;;;22.95;17.29;97634.56;5120248;28;573;-68
2021/01/17 07:14:06;;;;;;;;;;;;;;;23.28;17.10;97634.91;5102327;28;653;-71
2021/01/17 07:16:32;;;;;;;;;;;;;;;23.22;17.13;97631.09;5119505;28;650;-69
2021/01/17 07:19:04;;;;;;;;;;;;;;;22.76;17.40;97633.63;5120110;28;1910;-73
2021/01/17 07:21:33;;;;;;;;;;;;;;;22.32;17.72;97629.94;5119963;28;617;-74
2021/01/17 07:23:58;;;;;;;;;;;;;;;22.10;18.18;97635.53;5119729;28;895;-75
2021/01/17 07:26:24;;;;;;;;;;;;;;;22.36;17.90;97630.63;5102229;28;827;-74
2021/01/17 07:28:49;;;;;;;;;;;;;;;22.68;17.57;97637.97;5102348;28;917;-70
2021/01/17 07:31:18;;;;;;;;;;;;;;;23.23;16.93;97631.88;5102449;28;626;-71
2021/01/17 07:33:43;;;;;;;;;;;;;;;23.17;16.81;97640.22;5119819;28;710;-70
2021/01/17 07:36:12;;;;;;;;;;;;;;;22.68;17.30;97629.44;5104823;28;1267;-77
2021/01/17 07:38:38;;;;;;;;;;;;;;;22.20;17.67;97631.56;5102950;28;1918;-74
2021/01/17 07:41:04;;;;;;;;;;;;;;;22.39;17.54;97637.44;5119664;28;590;-75
2021/01/17 07:43:31;;;;;;;;;;;;;;;22.05;18.10;97633.28;5119793;28;935;-74
2021/01/17 07:45:57;;;;;;;;;;;;;;;22.53;17.42;97642.56;5123463;28;875;-75
2021/01/17 07:48:23;;;;;;;;;;;;;;;21.52;18.46;97638.69;5124728;28;984;-78
2021/01/17 07:50:49;;;;;;;;;;;;;;;22.52;17.56;97638.16;5128056;28;721;-78
2021/01/17 07:53:33;;;;;;;;;;;;;;;22.27;17.65;97631.31;5109345;28;681;-76
2021/01/17 07:56:02;;;;;;;;;;;;;;;22.09;18.01;97631.13;5123723;28;1032;-76
2021/01/17 07:58:31;;;;;;;;;;;;;;;22.05;18.01;97633.28;5122972;28;1909;-76
2021/01/17 08:00:56;;;;;;;;;;;;;;;21.87;18.15;97641.63;5124119;28;974;-73
2021/01/17 08:03:25;;;;;;;;;;;;;;;22.92;16.98;97635.50;5105278;28;929;-70
2021/01/17 08:05:54;;;;;;;;;;;;;;;22.09;17.49;97637.59;5123031;28;677;-70
2021/01/17 08:08:35;;;;;;;;;;;;;;;22.72;17.47;97632.94;5122848;28;669;-69
2021/01/17 08:11:01;;;;;;;;;;;;;;;23.12;16.89;97618.13;5122798;28;693;-73
2021/01/17 08:13:32;;;;;;;;;;;;;;;22.49;17.63;97616.41;5122508;28;848;-71
2021/01/17 08:16:11;;;;;;;;;;;;;;;23.00;17.58;97616.13;5122703;28;946;-71
2021/01/17 08:18:37;;;;;;;;;;;;;;;22.68;17.62;97614.47;5122631;28;1901;-70
2021/01/17 08:21:17;;;;;;;;;;;;;;;23.57;16.75;97613.88;5126618;28;705;-79
2021/01/17 08:24:01;;;;;;;;;;;;;;;22.86;17.31;97615.41;5125352;28;743;-79
2021/01/17 08:26:46;;;;;;;;;;;;;;;22.66;17.23;97612.13;5126649;28;701;-78
2021/01/17 08:29:11;;;;;;;;;;;;;;;22.72;17.17;97618.78;5124819;28;872;-78
2021/01/17 08:31:40;;;;;;;;;;;;;;;22.46;17.53;97618.09;5125858;28;840;-78
2021/01/17 08:34:06;;;;;;;;;;;;;;;22.26;17.47;97626.91;5143009;27;1432;-80
2021/01/17 08:36:32;;;;;;;;;;;;;;;22.46;17.49;97637.16;5127099;28;661;-79
2021/01/17 08:38:57;;;;;;;;;;;;;;;22.01;17.79;97621.28;5105845;28;1901;-77
2021/01/17 08:41:26;;;;;;;;;;;;;;;22.35;17.30;97627.00;5124460;28;661;-77
2021/01/17 08:43:55;;;;;;;;;;;;;;;22.07;17.38;97620.25;5122800;28;1257;-77
2021/01/17 08:46:34;;;;;;;;;;;;;;;21.99;17.73;97615.28;5107055;28;950;-77
2021/01/17 08:48:59;;;;;;;;;;;;;;;22.25;17.42;97616.81;5122673;28;1101;-76
2021/01/17 08:51:24;;;;;;;;;;;;;;;22.62;16.99;97623.59;5105031;28;1154;-72
2021/01/17 08:53:50;;;;;;;;;;;;;;;23.38;16.56;97622.34;5122514;28;1165;-78
2021/01/17 08:56:18;;;;;;;;;;;;;;;22.44;17.09;97619.84;5124509;28;1165;-74
2021/01/17 08:58:45;;;;;;;;;;;;;;;22.30;17.38;97624.75;5122814;28;1990;-77
2021/01/17 09:01:11;;;;;;;;;;;;;;;21.92;17.75;97632.53;5124148;28;947;-78
2021/01/17 09:03:37;;;;;;;;;;;;;;;22.16;17.48;97625.25;5104673;28;1006;-74
2021/01/17 09:06:03;;;;;;;;;;;;;;;22.51;17.13;97626.03;5123895;28;658;-77
2021/01/17 09:08:29;;;;;;;;;;;;;;;22.27;17.25;97625.66;5104549;28;665;-76
2021/01/17 09:10:55;;;;;;;;;;;;;;;22.17;17.56;97629.66;5105614;28;598;-76
2021/01/17 09:13:21;;;;;;;;;;;;;;;22.34;17.19;97614.06;5121794;28;994;-74
2021/01/17 09:15:59;;;;;;;;;;;;;;;22.19;17.08;97618.66;5104164;28;873;-75
2021/01/17 09:18:25;;;;;;;;;;;;;;;22.01;17.25;97612.78;5121452;28;1898;-75
2021/01/17 09:20:53;;;;;;;;;;;;;;;21.99;17.47;97610.41;5122397;28;688;-77
2021/01/17 09:23:19;;;;;;;;;;;;;;;22.08;17.33;97596.34;5105053;28;736;-74
2021/01/17 09:25:47;;;;;;;;;;;;;;;21.95;17.29;97608.94;5123992;28;621;-77
2021/01/17 09:28:16;;;;;;;;;;;;;;;21.89;17.60;97605.91;5104756;28;993;-75
2021/01/17 09:30:51;;;;;;;;;;;;;;;21.94;17.35;97607.38;5103812;28;976;-74
2021/01/17 09:33:17;;;;;;;;;;;;;;;22.49;16.84;97600.19;5121468;28;646;-75
2021/01/17 09:35:42;;;;;;;;;;;;;;;22.03;17.33;97598.97;5121665;28;736;-75
2021/01/17 09:38:11;;;;;;;;;;;;;;;21.81;17.38;97588.38;5121930;28;1906;-79
2021/01/17 09:40:40;;;;;;;;;;;;;;;21.90;17.39;97601.03;5106461;28;812;-77
2021/01/17 09:43:06;;;;;;;;;;;;;;;21.60;17.32;97600.38;5104355;28;1009;-75
2021/01/17 09:45:31;;;;;;;;;;;;;;;21.91;17.16;97592.06;5121185;28;912;-75
2021/01/17 09:47:58;;;;;;;;;;;;;;;21.98;16.92;97599.56;5122182;28;956;-80
2021/01/17 09:50:24;;;;;;;;;;;;;;;21.87;17.23;97584.97;5121796;28;625;-75
2021/01/17 09:52:49;;;;;;;;;;;;;;;21.89;16.99;97593.78;5121737;28;668;-77
2021/01/17 09:55:15;;;;;;;;;;;;;;;22.17;16.60;97592.03;5121782;28;1140;-79
2021/01/17 09:57:44;;;;;;;;;;;;;;;22.13;16.78;97586.50;5107817;28;1906;-77
2021/01/17 10:00:15;;;;;;;;;;;;;;;22.35;16.52;97581.63;5121482;28;898;-77
2021/01/17 10:02:40;;;;;;;;;;;;;;;22.00;17.01;97582.88;5106879;28;979;-78
2021/01/17 10:05:06;;;;;;;;;;;;;;;22.34;16.60;97582.91;5104808;28;1130;-77
2021/01/17 10:07:31;;;;;;;;;;;;;;;22.34;16.41;97576.44;5107733;28;1138;-79
2021/01/17 10:09:57;;;;;;;;;;;;;;;21.53;17.50;97583.66;5103760;28;914;-78
2021/01/17 10:12:24;;;;;;;;;;;;;;;21.91;16.66;97585.63;5123882;28;1138;-80
2021/01/17 10:14:50;;;;;;;;;;;;;;;22.13;16.79;97574.38;5104970;28;1292;-78
2021/01/17 10:17:15;;;;;;;;;;;;;;;22.15;16.56;97574.69;5125991;28;841;-78
2021/01/17 10:19:41;;;;;;;;;;;;;;;22.57;16.36;97580.84;5124832;28;617;-78
2021/01/17 10:22:13;;;;;;;;;;;;;;;21.81;16.94;97574.22;5124544;28;700;-79
2021/01/17 10:24:38;;;;;;;;;;;;;;;22.06;16.67;97564.81;5105141;28;689;-78
2021/01/17 10:27:05;;;;;;;;;;;;;;;22.39;16.83;97564.50;5122509;28;882;-75
2021/01/17 10:29:34;;;;;;;;;;;;;;;22.49;16.61;97571.03;5120165;28;985;-72
2021/01/17 10:32:03;;;;;;;;;;;;;;;23.00;16.53;97567.91;5120541;28;940;-73
2021/01/17 10:34:37;;;;;;;;;;;;;;;22.30;17.46;97567.28;5102967;28;705;-69
2021/01/17 10:37:04;;;;;;;;;;;;;;;22.63;16.87;97565.59;5120993;28;674;-67
2021/01/17 10:39:30;;;;;;;;;;;;;;;23.24;16.68;97565.34;5120789;28;1901;-79
2021/01/17 10:42:14;;;;;;;;;;;;;;;23.04;16.73;97575.00;5125671;28;1005;-78
2021/01/17 10:44:41;;;;;;;;;;;;;;;22.47;17.00;97567.84;5124327;28;954;-78
2021/01/17 10:47:12;;;;;;;;;;;;;;;22.01;17.63;97570.28;5105463;28;687;-76
2021/01/17 10:49:38;;;;;;;;;;;;;;;22.32;17.29;97565.53;5121040;28;697;-74
2021/01/17 10:52:24;;;;;;;;;;;;;;;21.65;17.78;97568.69;5103323;28;610;-74
2021/01/17 10:54:49;;;;;;;;;;;;;;;22.02;17.26;97569.84;5119437;28;1527;-74
2021/01/17 10:57:15;;;;;;;;;;;;;;;22.03;17.03;97573.47;5085777;28;1339;-76
2021/01/17 10:59:40;;;;;;;;;;;;;;;22.18;16.88;97570.97;5102871;28;1965;-78
2021/01/17 11:02:06;;;;;;;;;;;;;;;22.18;16.83;97583.09;5104426;28;709;-77
2021/01/17 11:04:38;;;;;;;;;;;;;;;22.02;17.03;97581.19;5121477;28;733;-77
2021/01/17 11:07:04;;;;;;;;;;;;;;;22.11;17.03;97577.66;5122582;28;605;-77
2021/01/17 11:09:30;;;;;;;;;;;;;;;22.27;16.58;97580.31;5103509;28;944;-77
2021/01/17 11:11:55;;;;;;;;;;;;;;;21.93;17.00;97594.47;5121964;28;880;-76
2021/01/17 11:14:24;;;;;;;;;;;;;;;22.27;16.69;97588.81;5121946;28;1022;-77
2021/01/17 11:16:50;;;;;;;;;;;;;;;22.27;17.00;97580.31;5123323;28;658;-78
2021/01/17 11:19:16;;;;;;;;;;;;;;;21.84;16.90;97584.63;5106538;28;1905;-78
2021/01/17 11:21:41;;;;;;;;;;;;;;;22.18;16.89;97583.09;5111024;28;702;-78
2021/01/17 11:24:07;;;;;;;;;;;;;;;22.36;16.56;97571.88;5126767;28;1025;-77
2021/01/17 11:26:33;;;;;;;;;;;;;;;22.46;16.36;97586.13;5110250;28;861;-77
2021/01/17 11:28:59;;;;;;;;;;;;;;;22.05;16.50;97574.59;5108416;28;830;-77
2021/01/17 11:31:25;;;;;;;;;;;;;;;22.44;16.28;97577.31;5127176;28;618;-78
2021/01/17 11:33:50;;;;;;;;;;;;;;;22.82;15.83;97586.38;5129078;28;674;-80
2021/01/17 11:36:19;;;;;;;;;;;;;;;21.92;16.86;97581.56;5113593;28;709;-80
2021/01/17 11:38:54;;;;;;;;;;;;;;;21.49;17.36;97571.66;5112460;28;1901;-78
2021/01/17 11:41:31;;;;;;;;;;;;;;;22.16;16.61;97579.91;5125991;28;902;-76
2021/01/17 11:44:07;;;;;;;;;;;;;;;21.85;16.81;97569.19;5124457;28;654;-76
2021/01/17 11:46:32;;;;;;;;;;;;;;;21.93;16.87;97583.91;5124714;28;654;-79
2021/01/17 11:48:58;;;;;;;;;;;;;;;22.20;16.43;97586.25;5107118;28;665;-75
2021/01/17 11:51:23;;;;;;;;;;;;;;;22.21;16.44;97582.16;5106278;28;642;-75
2021/01/17 11:53:49;;;;;;;;;;;;;;;22.25;16.50;97582.03;5123547;28;803;-76
2021/01/17 11:56:14;;;;;;;;;;;;;;;21.62;16.76;97580.13;5123260;28;1185;-77
2021/01/17 11:58:40;;;;;;;;;;;;;;;21.70;16.99;97585.09;5126166;28;1972;-78
2021/01/17 12:01:05;;;;;;;;;;;;;;;22.06;16.69;97587.50;5128480;28;706;-81
2021/01/17 12:03:34;;;;;;;;;;;;;;;22.06;16.70;97575.38;5125377;28;685;-75
2021/01/17 12:06:01;;;;;;;;;;;;;;;21.53;17.28;97583.66;5124545;28;642;-76
2021/01/17 12:08:46;;;;;;;;;;;;;;;21.89;16.90;97576.78;5123537;28;1032;-77
2021/01/17 12:11:12;;;;;;;;;;;;;;;21.90;16.66;97589.69;5127080;28;897;-81
2021/01/17 12:13:37;;;;;;;;;;;;;;;22.20;16.42;97586.25;5109724;28;1293;-80
2021/01/17 12:16:06;;;;;;;;;;;;;;;21.97;16.91;97578.13;5130234;28;681;-80
2021/01/17 12:18:35;;;;;;;;;;;;;;;22.18;16.31;97571.75;5094926;28;1914;-79
2021/01/17 12:21:01;;;;;;;;;;;;;;;22.16;16.23;97579.91;5128149;28;697;-78
2021/01/17 12:23:26;;;;;;;;;;;;;;;21.98;16.52;97579.72;5127279;28;974;-78
2021/01/17 12:25:52;;;;;;;;;;;;;;;22.45;15.87;97578.88;5109619;28;882;-78
2021/01/17 12:28:17;;;;;;;;;;;;;;;22.43;16.13;97570.81;5106727;28;948;-78
2021/01/17 12:30:42;;;;;;;;;;;;;;;22.48;16.02;97583.63;5123830;28;725;-77
2021/01/17 12:33:08;;;;;;;;;;;;;;;21.87;16.60;97587.81;5124009;28;694;-77
2021/01/17 12:35:33;;;;;;;;;;;;;;;21.99;16.35;97586.97;5125456;28;657;-79
2021/01/17 12:37:59;;;;;;;;;;;;;;;22.09;16.23;97592.25;5124570;28;1905;-77
2021/01/17 12:40:24;;;;;;;;;;;;;;;22.49;15.99;97596.56;5122720;28;893;-77
2021/01/17 12:42:50;;;;;;;;;;;;;;;21.41;16.77;97598.63;5123775;28;845;-78
2021/01/17 12:45:16;;;;;;;;;;;;;;;21.92;16.22;97587.22;5124153;28;705;-75
2021/01/17 12:47:41;;;;;;;;;;;;;;;21.57;16.77;97601.31;5123276;28;573;-75
2021/01/17 12:50:08;;;;;;;;;;;;;;;22.43;15.81;97593.50;5124301;28;669;-77
2021/01/17 12:52:33;;;;;;;;;;;;;;;21.90;16.15;97601.03;5126064;28;598;-77
2021/01/17 12:54:59;;;;;;;;;;;;;;;21.73;16.66;97597.56;5125213;28;1069;-78
2021/01/17 12:57:24;;;;;;;;;;;;;;;21.77;16.50;97596.19;5125464;28;1905;-77
2021/01/17 12:59:49;;;;;;;;;;;;;;;22.21;15.80;97604.03;5123264;28;804;-77
2021/01/17 13:02:15;;;;;;;;;;;;;;;21.72;16.25;97605.25;5124372;28;603;-77
2021/01/17 13:04:40;;;;;;;;;;;;;;;22.10;16.12;97605.19;5123063;28;622;-75